Time,TemperatureF,DewpointF,PressureIn,WindDirection,WindDirectionDegrees,WindSpeedMPH,WindSpeedGustMPH,Humidity,HourlyPrecipIn,Conditions,Clouds,dailyrainin,SolarRadiationWatts/m^2,SoftwareType,DateUTC
2013-10-13 00:00:00,46.0,43.0,-100.00,West,259,5.0,11.0,90,0.00,,,-99.99,0.000000,,2013-10-13 05:00:00,
2013-10-13 00:43:00,46.0,43.0,-100.00,West,259,5.0,11.0,90,0.00,,,-99.99,0.000000,,2013-10-13 05:43:00,
2013-10-13 00:52:00,46.0,43.0,-100.00,West,259,5.0,11.0,90,0.00,,,-99.99,0.000000,,2013-10-13 05:52:00,
2013-10-13 01:00:00,46.0,43.0,-100.00,WSW,242,5.0,11.0,88,0.00,,,0.00,0.000000,,2013-10-13 06:00:00,
2013-10-13 01:22:00,46.0,43.0,-100.00,WSW,242,5.0,11.0,88,0.00,,,0.00,0.000000,,2013-10-13 06:22:00,
2013-10-13 01:32:00,46.0,43.0,-100.00,WSW,242,5.0,11.0,88,0.00,,,0.00,0.000000,,2013-10-13 06:32:00,
2013-10-13 01:42:00,46.0,43.0,-100.00,WSW,242,5.0,11.0,88,0.00,,,0.00,0.000000,,2013-10-13 06:42:00,
2013-10-13 01:52:00,46.0,43.0,-100.00,WSW,242,5.0,11.0,88,0.00,,,0.00,0.000000,,2013-10-13 06:52:00,
2013-10-13 02:00:00,46.0,43.0,-100.00,West,266,5.0,10.0,88,0.00,,,0.00,0.000000,,2013-10-13 07:00:00,
2013-10-13 02:42:00,46.0,43.0,-100.00,West,266,5.0,10.0,88,0.00,,,0.00,0.000000,,2013-10-13 07:42:00,
2013-10-13 02:52:00,46.0,43.0,-100.00,West,266,5.0,10.0,88,0.00,,,0.00,0.000000,,2013-10-13 07:52:00,
2013-10-13 03:00:00,46.0,41.0,-100.00,West,278,5.0,11.0,83,0.00,,,0.00,0.000000,,2013-10-13 08:00:00,
2013-10-13 03:22:00,46.0,41.0,-100.00,West,278,5.0,11.0,83,0.00,,,0.00,0.000000,,2013-10-13 08:22:00,
2013-10-13 03:32:00,46.0,41.0,-100.00,West,278,5.0,11.0,83,0.00,,,0.00,0.000000,,2013-10-13 08:32:00,
2013-10-13 03:42:00,46.0,41.0,-100.00,West,278,5.0,11.0,83,0.00,,,0.00,0.000000,,2013-10-13 08:42:00,
2013-10-13 03:52:00,46.0,41.0,-100.00,West,278,5.0,11.0,83,0.00,,,0.00,0.000000,,2013-10-13 08:52:00,
2013-10-13 04:00:00,45.0,40.0,-100.00,West,278,4.0,11.0,82,0.00,,,0.00,0.000000,,2013-10-13 09:00:00,
2013-10-13 04:43:00,45.0,40.0,-100.00,West,278,4.0,11.0,82,0.00,,,0.00,0.000000,,2013-10-13 09:43:00,
2013-10-13 04:53:00,45.0,40.0,-100.00,West,278,4.0,11.0,82,0.00,,,0.00,0.000000,,2013-10-13 09:53:00,
2013-10-13 05:00:00,44.0,39.0,-100.00,WSW,254,3.0,8.0,84,0.00,,,0.00,0.000000,,2013-10-13 10:00:00,
2013-10-13 05:43:00,44.0,39.0,-100.00,WSW,254,3.0,8.0,84,0.00,,,0.00,0.000000,,2013-10-13 10:43:00,
2013-10-13 05:53:00,44.0,39.0,-100.00,WSW,254,3.0,8.0,84,0.00,,,0.00,0.000000,,2013-10-13 10:53:00,
2013-10-13 06:00:00,44.0,39.0,-100.00,West,261,5.0,9.0,84,0.00,,,0.00,0.000000,,2013-10-13 11:00:00,
2013-10-13 06:22:00,44.0,39.0,-100.00,West,261,5.0,9.0,84,0.00,,,0.00,0.000000,,2013-10-13 11:22:00,
2013-10-13 06:33:00,44.0,39.0,-100.00,West,261,5.0,9.0,84,0.00,,,0.00,0.000000,,2013-10-13 11:33:00,
2013-10-13 06:42:00,44.0,39.0,-100.00,West,261,5.0,9.0,84,0.00,,,0.00,0.000000,,2013-10-13 11:42:00,
2013-10-13 06:52:00,44.0,39.0,-100.00,West,261,5.0,9.0,84,0.00,,,0.00,0.000000,,2013-10-13 11:52:00,
2013-10-13 07:00:00,44.0,37.0,-100.00,WNW,298,4.0,12.0,77,0.00,,,0.00,0.000000,,2013-10-13 12:00:00,
2013-10-13 07:42:00,44.0,37.0,-100.00,WNW,298,4.0,12.0,77,0.00,,,0.00,0.000000,,2013-10-13 12:42:00,
2013-10-13 07:52:00,44.0,37.0,-100.00,WNW,298,4.0,12.0,77,0.00,,,0.00,0.000000,,2013-10-13 12:52:00,
2013-10-13 08:00:00,43.0,36.0,-100.00,WNW,301,5.0,10.0,75,0.00,,,0.00,13.000000,,2013-10-13 13:00:00,
2013-10-13 08:42:00,43.0,36.0,-100.00,WNW,301,5.0,10.0,75,0.00,,,0.00,13.000000,,2013-10-13 13:42:00,
2013-10-13 08:52:00,43.0,36.0,-100.00,WNW,301,5.0,10.0,75,0.00,,,0.00,13.000000,,2013-10-13 13:52:00,
2013-10-13 09:00:00,45.0,35.0,-100.00,WNW,293,5.0,8.0,69,0.00,,,0.00,116.000000,,2013-10-13 14:00:00,
2013-10-13 09:42:00,45.0,35.0,-100.00,WNW,293,5.0,8.0,69,0.00,,,0.00,116.000000,,2013-10-13 14:42:00,
2013-10-13 09:52:00,45.0,35.0,-100.00,WNW,293,5.0,8.0,69,0.00,,,0.00,116.000000,,2013-10-13 14:52:00,
2013-10-13 10:00:00,47.0,37.0,-100.00,NW,306,6.0,12.0,67,0.00,,,0.00,313.000000,,2013-10-13 15:00:00,
2013-10-13 10:43:00,47.0,37.0,-100.00,NW,306,6.0,12.0,67,0.00,,,0.00,313.000000,,2013-10-13 15:43:00,
2013-10-13 10:54:00,47.0,37.0,-100.00,NW,306,6.0,12.0,67,0.00,,,0.00,313.000000,,2013-10-13 15:54:00,
2013-10-13 11:00:00,50.0,36.0,-100.00,WNW,289,5.0,13.0,58,0.00,,,0.00,489.000000,,2013-10-13 16:00:00,
2013-10-13 11:43:00,50.0,36.0,-100.00,WNW,289,5.0,13.0,58,0.00,,,0.00,489.000000,,2013-10-13 16:43:00,
2013-10-13 11:54:00,50.0,36.0,-100.00,WNW,289,5.0,13.0,58,0.00,,,0.00,489.000000,,2013-10-13 16:54:00,
2013-10-13 12:00:00,52.0,34.0,-100.00,NW,318,6.0,13.0,51,0.00,,,0.00,643.000000,,2013-10-13 17:00:00,
2013-10-13 12:43:00,52.0,34.0,-100.00,NW,318,6.0,13.0,51,0.00,,,0.00,643.000000,,2013-10-13 17:43:00,
2013-10-13 12:52:00,52.0,34.0,-100.00,NW,318,6.0,13.0,51,0.00,,,0.00,643.000000,,2013-10-13 17:52:00,
2013-10-13 13:00:00,54.0,33.0,-100.00,NW,315,6.0,12.0,45,0.00,,,0.00,703.000000,,2013-10-13 18:00:00,
2013-10-13 13:42:00,54.0,33.0,-100.00,NW,315,6.0,12.0,45,0.00,,,0.00,703.000000,,2013-10-13 18:42:00,
2013-10-13 13:52:00,54.0,33.0,-100.00,NW,315,6.0,12.0,45,0.00,,,0.00,703.000000,,2013-10-13 18:52:00,
2013-10-13 14:00:00,55.0,29.0,-100.00,NNW,335,6.0,13.0,37,0.00,,,0.00,680.000000,,2013-10-13 19:00:00,
2013-10-13 14:22:00,55.0,29.0,-100.00,NNW,335,6.0,13.0,37,0.00,,,0.00,680.000000,,2013-10-13 19:22:00,
2013-10-13 14:32:00,55.0,29.0,-100.00,NNW,335,6.0,13.0,37,0.00,,,0.00,680.000000,,2013-10-13 19:32:00,
2013-10-13 14:42:00,55.0,29.0,-100.00,NNW,335,6.0,13.0,37,0.00,,,0.00,680.000000,,2013-10-13 19:42:00,
2013-10-13 14:53:00,55.0,29.0,-100.00,NNW,335,6.0,13.0,37,0.00,,,0.00,680.000000,,2013-10-13 19:53:00,
2013-10-13 15:00:00,55.0,26.0,-100.00,NW,312,6.0,13.0,33,0.00,,,0.00,591.000000,,2013-10-13 20:00:00,
2013-10-13 15:43:00,55.0,26.0,-100.00,NW,312,6.0,13.0,33,0.00,,,0.00,591.000000,,2013-10-13 20:43:00,
2013-10-13 15:52:00,55.0,26.0,-100.00,NW,312,6.0,13.0,33,0.00,,,0.00,591.000000,,2013-10-13 20:52:00,
2013-10-13 16:00:00,56.0,27.0,-100.00,NNW,339,6.0,13.0,33,0.00,,,0.00,486.000000,,2013-10-13 21:00:00,
2013-10-13 16:44:00,56.0,27.0,-100.00,NNW,339,6.0,13.0,33,0.00,,,0.00,486.000000,,2013-10-13 21:44:00,
2013-10-13 16:55:00,56.0,27.0,-100.00,NNW,339,6.0,13.0,33,0.00,,,0.00,486.000000,,2013-10-13 21:55:00,
2013-10-13 17:00:00,55.0,26.0,-100.00,WNW,293,3.0,9.0,33,0.00,,,0.00,282.000000,,2013-10-13 22:00:00,
2013-10-13 17:24:00,55.0,26.0,-100.00,WNW,293,3.0,9.0,33,0.00,,,0.00,282.000000,,2013-10-13 22:24:00,
2013-10-13 17:32:00,55.0,26.0,-100.00,WNW,293,3.0,9.0,33,0.00,,,0.00,282.000000,,2013-10-13 22:32:00,
2013-10-13 17:43:00,55.0,26.0,-100.00,WNW,293,3.0,9.0,33,0.00,,,0.00,282.000000,,2013-10-13 22:43:00,
2013-10-13 17:53:00,55.0,26.0,-100.00,WNW,293,3.0,9.0,33,0.00,,,0.00,282.000000,,2013-10-13 22:53:00,
2013-10-13 18:00:00,51.0,31.0,-100.00,NW,315,2.0,7.0,46,0.00,,,0.00,92.000000,,2013-10-13 23:00:00,
2013-10-13 18:42:00,51.0,31.0,-100.00,NW,315,2.0,7.0,46,0.00,,,0.00,92.000000,,2013-10-13 23:42:00,
2013-10-13 18:52:00,51.0,31.0,-100.00,NW,315,2.0,7.0,46,0.00,,,0.00,92.000000,,2013-10-13 23:52:00,
2013-10-13 19:00:00,41.0,33.0,-100.00,NW,307,0.0,3.0,74,0.00,,,0.00,4.000000,,2013-10-14 00:00:00,
2013-10-13 19:22:00,41.0,33.0,-100.00,NW,307,0.0,3.0,74,0.00,,,0.00,4.000000,,2013-10-14 00:22:00,
2013-10-13 19:32:00,41.0,33.0,-100.00,NW,307,0.0,3.0,74,0.00,,,0.00,4.000000,,2013-10-14 00:32:00,
2013-10-13 19:42:00,41.0,33.0,-100.00,NW,307,0.0,3.0,74,0.00,,,0.00,4.000000,,2013-10-14 00:42:00,
2013-10-13 19:52:00,41.0,33.0,-100.00,NW,307,0.0,3.0,74,0.00,,,0.00,4.000000,,2013-10-14 00:52:00,
2013-10-13 20:00:00,37.0,32.0,-100.00,SSE,151,0.0,0.0,83,0.00,,,0.00,0.000000,,2013-10-14 01:00:00,
2013-10-13 20:42:00,37.0,32.0,-100.00,SSE,151,0.0,0.0,83,0.00,,,0.00,0.000000,,2013-10-14 01:42:00,
2013-10-13 20:52:00,37.0,32.0,-100.00,SSE,151,0.0,0.0,83,0.00,,,0.00,0.000000,,2013-10-14 01:52:00,
2013-10-13 21:00:00,34.0,31.0,-100.00,ESE,116,0.0,0.0,88,0.00,,,0.00,0.000000,,2013-10-14 02:00:00,
2013-10-13 21:42:00,34.0,31.0,-100.00,ESE,116,0.0,0.0,88,0.00,,,0.00,0.000000,,2013-10-14 02:42:00,
2013-10-13 21:52:00,34.0,31.0,-100.00,ESE,116,0.0,0.0,88,0.00,,,0.00,0.000000,,2013-10-14 02:52:00,
2013-10-13 22:00:00,32.0,29.0,-100.00,NNW,347,0.0,0.0,88,0.00,,,0.00,0.000000,,2013-10-14 03:00:00,
2013-10-13 22:44:00,32.0,29.0,-100.00,NNW,347,0.0,0.0,88,0.00,,,0.00,0.000000,,2013-10-14 03:44:00,
2013-10-13 22:55:00,32.0,29.0,-100.00,NNW,347,0.0,0.0,88,0.00,,,0.00,0.000000,,2013-10-14 03:55:00,
2013-10-13 23:00:00,31.0,29.0,-100.00,ESE,102,0.0,0.0,91,0.00,,,0.00,0.000000,,2013-10-14 04:00:00,
2013-10-13 23:44:00,31.0,29.0,-100.00,ESE,102,0.0,0.0,91,0.00,,,0.00,0.000000,,2013-10-14 04:44:00,
2013-10-13 23:54:00,31.0,29.0,-100.00,ESE,102,0.0,0.0,91,0.00,,,0.00,0.000000,,2013-10-14 04:54:00,